sensor_id;sensor_type;location;lat;lon;timestamp;P1;durP1;ratioP1;P2;durP2;ratioP2
24517;SDS011;12678;51.336;12.406;2023-02-28T00:18:32;5.60;;;2.70;;
24517;SDS011;12678;51.336;12.406;2023-02-28T00:20:58;5.20;;;2.22;;
24517;SDS011;12678;51.336;12.406;2023-02-28T00:23:24;3.92;;;2.33;;
24517;SDS011;12678;51.336;12.406;2023-02-28T00:25:50;8.45;;;2.22;;
24517;SDS011;12678;51.336;12.406;2023-02-28T00:28:16;5.18;;;2.40;;
24517;SDS011;12678;51.336;12.406;2023-02-28T00:30:41;6.90;;;3.08;;
24517;SDS011;12678;51.336;12.406;2023-02-28T00:33:07;3.58;;;2.75;;
24517;SDS011;12678;51.336;12.406;2023-02-28T00:35:33;5.25;;;2.22;;
24517;SDS011;12678;51.336;12.406;2023-02-28T00:37:59;3.75;;;2.10;;
24517;SDS011;12678;51.336;12.406;2023-02-28T00:40:24;6.88;;;3.00;;
24517;SDS011;12678;51.336;12.406;2023-02-28T00:42:50;5.70;;;2.75;;
24517;SDS011;12678;51.336;12.406;2023-02-28T00:45:15;5.20;;;2.95;;
24517;SDS011;12678;51.336;12.406;2023-02-28T00:47:41;6.72;;;2.67;;
24517;SDS011;12678;51.336;12.406;2023-02-28T00:50:07;7.95;;;2.17;;
24517;SDS011;12678;51.336;12.406;2023-02-28T00:52:34;4.18;;;2.30;;
24517;SDS011;12678;51.336;12.406;2023-02-28T00:54:59;5.15;;;2.58;;
24517;SDS011;12678;51.336;12.406;2023-02-28T00:57:25;4.53;;;2.25;;
24517;SDS011;12678;51.336;12.406;2023-02-28T00:59:51;8.50;;;2.80;;
24517;SDS011;12678;51.336;12.406;2023-02-28T01:02:19;3.42;;;2.03;;
24517;SDS011;12678;51.336;12.406;2023-02-28T01:04:45;6.35;;;2.10;;
24517;SDS011;12678;51.336;12.406;2023-02-28T01:07:11;4.25;;;2.22;;
24517;SDS011;12678;51.336;12.406;2023-02-28T01:09:37;6.43;;;2.90;;
24517;SDS011;12678;51.336;12.406;2023-02-28T01:12:03;6.65;;;2.92;;
24517;SDS011;12678;51.336;12.406;2023-02-28T01:14:29;3.70;;;2.70;;
24517;SDS011;12678;51.336;12.406;2023-02-28T01:16:55;4.05;;;2.47;;
24517;SDS011;12678;51.336;12.406;2023-02-28T01:19:21;3.13;;;2.10;;
24517;SDS011;12678;51.336;12.406;2023-02-28T01:21:47;4.57;;;2.28;;
24517;SDS011;12678;51.336;12.406;2023-02-28T01:24:13;4.38;;;2.47;;
24517;SDS011;12678;51.336;12.406;2023-02-28T01:26:38;5.03;;;2.55;;
24517;SDS011;12678;51.336;12.406;2023-02-28T01:29:04;6.50;;;2.78;;
24517;SDS011;12678;51.336;12.406;2023-02-28T01:31:30;6.15;;;2.92;;
24517;SDS011;12678;51.336;12.406;2023-02-28T01:33:55;4.63;;;2.45;;
24517;SDS011;12678;51.336;12.406;2023-02-28T01:36:22;3.13;;;2.20;;
24517;SDS011;12678;51.336;12.406;2023-02-28T01:38:49;7.57;;;2.60;;
24517;SDS011;12678;51.336;12.406;2023-02-28T01:43:59;4.78;;;1.95;;
24517;SDS011;12678;51.336;12.406;2023-02-28T01:46:28;5.13;;;2.47;;
24517;SDS011;12678;51.336;12.406;2023-02-28T01:49:00;4.45;;;2.60;;
24517;SDS011;12678;51.336;12.406;2023-02-28T01:51:41;4.93;;;2.85;;
24517;SDS011;12678;51.336;12.406;2023-02-28T01:54:24;4.30;;;2.65;;
24517;SDS011;12678;51.336;12.406;2023-02-28T01:57:08;4.20;;;2.05;;
24517;SDS011;12678;51.336;12.406;2023-02-28T01:59:42;4.05;;;2.30;;
24517;SDS011;12678;51.336;12.406;2023-02-28T02:02:17;4.50;;;2.35;;
24517;SDS011;12678;51.336;12.406;2023-02-28T02:04:55;4.10;;;2.30;;
24517;SDS011;12678;51.336;12.406;2023-02-28T02:07:43;5.25;;;2.47;;
24517;SDS011;12678;51.336;12.406;2023-02-28T02:13:02;4.50;;;2.47;;
24517;SDS011;12678;51.336;12.406;2023-02-28T02:16:04;7.43;;;2.28;;
24517;SDS011;12678;51.336;12.406;2023-02-28T02:18:41;4.07;;;2.05;;
24517;SDS011;12678;51.336;12.406;2023-02-28T02:21:20;6.32;;;2.40;;
24517;SDS011;12678;51.336;12.406;2023-02-28T02:40:23;3.35;;;2.20;;
24517;SDS011;12678;51.336;12.406;2023-02-28T02:43:02;4.03;;;2.42;;
24517;SDS011;12678;51.336;12.406;2023-02-28T02:45:49;4.35;;;1.70;;
24517;SDS011;12678;51.336;12.406;2023-02-28T02:48:25;8.10;;;2.78;;
24517;SDS011;12678;51.336;12.406;2023-02-28T02:50:55;3.30;;;2.30;;
24517;SDS011;12678;51.336;12.406;2023-02-28T02:53:29;6.20;;;2.33;;
24517;SDS011;12678;51.336;12.406;2023-02-28T02:55:58;4.13;;;1.80;;
24517;SDS011;12678;51.336;12.406;2023-02-28T02:58:28;6.38;;;2.47;;
24517;SDS011;12678;51.336;12.406;2023-02-28T03:00:57;5.68;;;2.08;;
24517;SDS011;12678;51.336;12.406;2023-02-28T03:03:26;5.18;;;2.58;;
24517;SDS011;12678;51.336;12.406;2023-02-28T03:05:56;6.50;;;2.78;;
24517;SDS011;12678;51.336;12.406;2023-02-28T03:08:23;6.00;;;2.60;;
24517;SDS011;12678;51.336;12.406;2023-02-28T03:10:50;6.30;;;2.90;;
24517;SDS011;12678;51.336;12.406;2023-02-28T03:19:23;5.05;;;1.92;;
24517;SDS011;12678;51.336;12.406;2023-02-28T03:22:27;4.60;;;1.85;;
24517;SDS011;12678;51.336;12.406;2023-02-28T03:35:53;4.68;;;2.10;;
24517;SDS011;12678;51.336;12.406;2023-02-28T03:41:05;7.05;;;2.45;;
24517;SDS011;12678;51.336;12.406;2023-02-28T03:43:40;5.07;;;2.67;;
24517;SDS011;12678;51.336;12.406;2023-02-28T03:46:10;5.72;;;2.67;;
24517;SDS011;12678;51.336;12.406;2023-02-28T03:48:45;3.53;;;2.05;;
24517;SDS011;12678;51.336;12.406;2023-02-28T03:51:17;12.90;;;5.90;;
24517;SDS011;12678;51.336;12.406;2023-02-28T03:53:54;5.60;;;2.90;;
24517;SDS011;12678;51.336;12.406;2023-02-28T03:56:27;6.70;;;3.70;;
24517;SDS011;12678;51.336;12.406;2023-02-28T03:59:07;5.55;;;2.70;;
24517;SDS011;12678;51.336;12.406;2023-02-28T04:01:46;5.07;;;2.10;;
24517;SDS011;12678;51.336;12.406;2023-02-28T04:04:13;4.88;;;2.22;;
24517;SDS011;12678;51.336;12.406;2023-02-28T04:06:40;4.50;;;2.38;;
24517;SDS011;12678;51.336;12.406;2023-02-28T04:09:07;5.70;;;2.63;;
24517;SDS011;12678;51.336;12.406;2023-02-28T04:11:36;7.28;;;2.63;;
24517;SDS011;12678;51.336;12.406;2023-02-28T04:14:07;4.15;;;2.25;;
24517;SDS011;12678;51.336;12.406;2023-02-28T04:16:35;5.75;;;3.10;;
24517;SDS011;12678;51.336;12.406;2023-02-28T04:19:03;6.93;;;3.17;;
24517;SDS011;12678;51.336;12.406;2023-02-28T04:21:31;6.85;;;2.58;;
24517;SDS011;12678;51.336;12.406;2023-02-28T04:23:58;4.20;;;2.50;;
24517;SDS011;12678;51.336;12.406;2023-02-28T04:26:32;4.47;;;2.85;;
24517;SDS011;12678;51.336;12.406;2023-02-28T04:29:00;9.15;;;2.83;;
24517;SDS011;12678;51.336;12.406;2023-02-28T04:31:28;6.13;;;3.00;;
24517;SDS011;12678;51.336;12.406;2023-02-28T04:34:00;11.55;;;4.13;;
24517;SDS011;12678;51.336;12.406;2023-02-28T04:36:46;5.05;;;2.30;;
24517;SDS011;12678;51.336;12.406;2023-02-28T04:39:14;6.60;;;2.92;;
24517;SDS011;12678;51.336;12.406;2023-02-28T04:41:40;5.00;;;2.47;;
24517;SDS011;12678;51.336;12.406;2023-02-28T04:44:06;7.95;;;2.75;;
24517;SDS011;12678;51.336;12.406;2023-02-28T04:46:32;6.35;;;3.42;;
24517;SDS011;12678;51.336;12.406;2023-02-28T04:48:57;8.10;;;2.80;;
24517;SDS011;12678;51.336;12.406;2023-02-28T04:51:23;4.35;;;2.58;;
24517;SDS011;12678;51.336;12.406;2023-02-28T04:53:49;6.45;;;2.90;;
24517;SDS011;12678;51.336;12.406;2023-02-28T04:56:16;7.20;;;2.90;;
24517;SDS011;12678;51.336;12.406;2023-02-28T04:58:43;8.35;;;2.60;;
24517;SDS011;12678;51.336;12.406;2023-02-28T05:01:19;6.45;;;3.08;;
24517;SDS011;12678;51.336;12.406;2023-02-28T05:03:57;4.57;;;2.50;;
24517;SDS011;12678;51.336;12.406;2023-02-28T05:06:25;4.47;;;2.67;;
24517;SDS011;12678;51.336;12.406;2023-02-28T05:08:51;10.65;;;2.95;;
24517;SDS011;12678;51.336;12.406;2023-02-28T05:11:19;5.50;;;2.67;;
24517;SDS011;12678;51.336;12.406;2023-02-28T05:13:54;3.40;;;2.50;;
24517;SDS011;12678;51.336;12.406;2023-02-28T05:16:20;5.78;;;2.97;;
24517;SDS011;12678;51.336;12.406;2023-02-28T05:18:46;6.45;;;3.17;;
24517;SDS011;12678;51.336;12.406;2023-02-28T05:21:22;3.20;;;2.60;;
24517;SDS011;12678;51.336;12.406;2023-02-28T05:23:53;4.35;;;2.40;;
24517;SDS011;12678;51.336;12.406;2023-02-28T05:26:20;5.13;;;2.63;;
24517;SDS011;12678;51.336;12.406;2023-02-28T05:28:45;7.10;;;2.47;;
24517;SDS011;12678;51.336;12.406;2023-02-28T05:31:11;6.30;;;3.10;;
24517;SDS011;12678;51.336;12.406;2023-02-28T05:33:37;3.65;;;2.13;;
24517;SDS011;12678;51.336;12.406;2023-02-28T05:36:04;6.90;;;2.85;;
24517;SDS011;12678;51.336;12.406;2023-02-28T05:38:30;4.80;;;2.40;;
24517;SDS011;12678;51.336;12.406;2023-02-28T05:40:56;5.03;;;2.45;;
24517;SDS011;12678;51.336;12.406;2023-02-28T05:43:22;4.57;;;2.50;;
24517;SDS011;12678;51.336;12.406;2023-02-28T05:45:47;7.25;;;2.70;;
24517;SDS011;12678;51.336;12.406;2023-02-28T05:48:13;8.63;;;2.50;;
24517;SDS011;12678;51.336;12.406;2023-02-28T05:50:39;5.03;;;2.95;;
24517;SDS011;12678;51.336;12.406;2023-02-28T05:53:04;4.32;;;2.47;;
24517;SDS011;12678;51.336;12.406;2023-02-28T05:55:30;7.18;;;2.75;;
24517;SDS011;12678;51.336;12.406;2023-02-28T05:57:55;4.57;;;2.53;;
24517;SDS011;12678;51.336;12.406;2023-02-28T06:00:21;5.43;;;2.40;;
24517;SDS011;12678;51.336;12.406;2023-02-28T06:02:47;4.90;;;2.53;;
24517;SDS011;12678;51.336;12.406;2023-02-28T06:05:14;5.60;;;2.95;;
24517;SDS011;12678;51.336;12.406;2023-02-28T06:07:41;8.15;;;3.33;;
24517;SDS011;12678;51.336;12.406;2023-02-28T06:10:08;5.35;;;2.58;;
24517;SDS011;12678;51.336;12.406;2023-02-28T06:12:34;5.07;;;2.90;;
24517;SDS011;12678;51.336;12.406;2023-02-28T06:15:00;6.97;;;2.97;;
24517;SDS011;12678;51.336;12.406;2023-02-28T06:17:25;5.85;;;2.85;;
24517;SDS011;12678;51.336;12.406;2023-02-28T06:19:51;6.82;;;3.28;;
24517;SDS011;12678;51.336;12.406;2023-02-28T06:22:17;10.23;;;3.40;;
24517;SDS011;12678;51.336;12.406;2023-02-28T06:24:42;13.10;;;3.28;;
24517;SDS011;12678;51.336;12.406;2023-02-28T06:27:08;9.73;;;3.20;;
24517;SDS011;12678;51.336;12.406;2023-02-28T06:29:34;5.60;;;2.13;;
24517;SDS011;12678;51.336;12.406;2023-02-28T06:32:00;7.30;;;2.83;;
24517;SDS011;12678;51.336;12.406;2023-02-28T06:34:26;7.35;;;3.30;;
24517;SDS011;12678;51.336;12.406;2023-02-28T06:36:51;9.75;;;3.17;;
24517;SDS011;12678;51.336;12.406;2023-02-28T06:39:17;8.18;;;2.95;;
24517;SDS011;12678;51.336;12.406;2023-02-28T06:41:44;8.52;;;3.10;;
24517;SDS011;12678;51.336;12.406;2023-02-28T06:44:11;4.35;;;2.53;;
24517;SDS011;12678;51.336;12.406;2023-02-28T06:46:39;8.57;;;3.33;;
24517;SDS011;12678;51.336;12.406;2023-02-28T06:49:06;7.10;;;2.92;;
24517;SDS011;12678;51.336;12.406;2023-02-28T06:51:33;9.15;;;2.92;;
24517;SDS011;12678;51.336;12.406;2023-02-28T06:54:00;6.25;;;3.15;;
24517;SDS011;12678;51.336;12.406;2023-02-28T06:56:25;5.15;;;3.15;;
24517;SDS011;12678;51.336;12.406;2023-02-28T06:58:51;7.43;;;3.38;;
24517;SDS011;12678;51.336;12.406;2023-02-28T07:01:17;5.68;;;2.75;;
24517;SDS011;12678;51.336;12.406;2023-02-28T07:03:44;5.40;;;3.08;;
24517;SDS011;12678;51.336;12.406;2023-02-28T07:06:10;6.82;;;3.10;;
24517;SDS011;12678;51.336;12.406;2023-02-28T07:08:36;4.47;;;2.75;;
24517;SDS011;12678;51.336;12.406;2023-02-28T07:11:01;7.22;;;2.97;;
24517;SDS011;12678;51.336;12.406;2023-02-28T07:13:28;7.72;;;3.28;;
24517;SDS011;12678;51.336;12.406;2023-02-28T07:15:58;9.77;;;2.92;;
24517;SDS011;12678;51.336;12.406;2023-02-28T07:18:26;6.55;;;3.03;;
24517;SDS011;12678;51.336;12.406;2023-02-28T07:20:52;8.10;;;2.90;;
24517;SDS011;12678;51.336;12.406;2023-02-28T07:23:18;6.25;;;3.05;;
24517;SDS011;12678;51.336;12.406;2023-02-28T07:25:44;9.88;;;4.18;;
24517;SDS011;12678;51.336;12.406;2023-02-28T07:28:10;4.57;;;2.95;;
24517;SDS011;12678;51.336;12.406;2023-02-28T07:30:36;6.15;;;3.00;;
24517;SDS011;12678;51.336;12.406;2023-02-28T07:33:02;10.20;;;3.80;;
24517;SDS011;12678;51.336;12.406;2023-02-28T07:35:28;5.78;;;2.97;;
24517;SDS011;12678;51.336;12.406;2023-02-28T07:37:55;6.38;;;2.60;;
24517;SDS011;12678;51.336;12.406;2023-02-28T07:40:22;8.10;;;3.33;;
24517;SDS011;12678;51.336;12.406;2023-02-28T07:42:48;7.72;;;3.45;;
24517;SDS011;12678;51.336;12.406;2023-02-28T07:45:14;8.32;;;3.40;;
24517;SDS011;12678;51.336;12.406;2023-02-28T07:47:40;9.65;;;3.83;;
24517;SDS011;12678;51.336;12.406;2023-02-28T07:50:08;9.63;;;3.92;;
24517;SDS011;12678;51.336;12.406;2023-02-28T07:52:36;8.70;;;3.60;;
24517;SDS011;12678;51.336;12.406;2023-02-28T07:55:02;6.97;;;3.17;;
24517;SDS011;12678;51.336;12.406;2023-02-28T07:57:29;8.23;;;3.33;;
24517;SDS011;12678;51.336;12.406;2023-02-28T07:59:55;7.00;;;3.25;;
24517;SDS011;12678;51.336;12.406;2023-02-28T08:02:20;8.70;;;3.63;;
24517;SDS011;12678;51.336;12.406;2023-02-28T08:04:46;9.13;;;3.92;;
24517;SDS011;12678;51.336;12.406;2023-02-28T08:07:14;13.15;;;4.28;;
24517;SDS011;12678;51.336;12.406;2023-02-28T08:09:44;7.53;;;3.90;;
24517;SDS011;12678;51.336;12.406;2023-02-28T08:12:10;6.75;;;2.80;;
24517;SDS011;12678;51.336;12.406;2023-02-28T08:14:36;10.43;;;3.55;;
24517;SDS011;12678;51.336;12.406;2023-02-28T08:17:03;6.25;;;3.10;;
24517;SDS011;12678;51.336;12.406;2023-02-28T08:19:29;8.07;;;3.33;;
24517;SDS011;12678;51.336;12.406;2023-02-28T08:21:55;6.90;;;3.38;;
24517;SDS011;12678;51.336;12.406;2023-02-28T08:24:22;9.30;;;3.22;;
24517;SDS011;12678;51.336;12.406;2023-02-28T08:26:48;6.65;;;3.10;;
24517;SDS011;12678;51.336;12.406;2023-02-28T08:29:13;6.45;;;2.85;;
24517;SDS011;12678;51.336;12.406;2023-02-28T08:31:39;6.68;;;3.60;;
24517;SDS011;12678;51.336;12.406;2023-02-28T08:34:09;10.45;;;2.92;;
24517;SDS011;12678;51.336;12.406;2023-02-28T08:36:37;8.90;;;3.00;;
24517;SDS011;12678;51.336;12.406;2023-02-28T08:39:04;8.52;;;3.30;;
24517;SDS011;12678;51.336;12.406;2023-02-28T08:41:30;12.85;;;3.25;;
24517;SDS011;12678;51.336;12.406;2023-02-28T08:43:57;4.70;;;2.03;;
24517;SDS011;12678;51.336;12.406;2023-02-28T08:46:23;11.18;;;2.90;;
24517;SDS011;12678;51.336;12.406;2023-02-28T08:48:52;5.25;;;2.80;;
24517;SDS011;12678;51.336;12.406;2023-02-28T08:51:20;5.90;;;2.63;;
24517;SDS011;12678;51.336;12.406;2023-02-28T08:53:53;5.82;;;2.60;;
24517;SDS011;12678;51.336;12.406;2023-02-28T08:56:20;5.68;;;2.80;;
24517;SDS011;12678;51.336;12.406;2023-02-28T08:58:46;6.20;;;2.58;;
24517;SDS011;12678;51.336;12.406;2023-02-28T09:01:21;6.78;;;3.10;;
24517;SDS011;12678;51.336;12.406;2023-02-28T09:03:49;9.63;;;3.40;;
24517;SDS011;12678;51.336;12.406;2023-02-28T09:06:16;5.70;;;3.30;;
24517;SDS011;12678;51.336;12.406;2023-02-28T09:08:43;5.75;;;2.88;;
24517;SDS011;12678;51.336;12.406;2023-02-28T09:11:09;3.20;;;2.25;;
24517;SDS011;12678;51.336;12.406;2023-02-28T09:13:35;5.75;;;2.83;;
24517;SDS011;12678;51.336;12.406;2023-02-28T09:16:02;11.25;;;2.85;;
24517;SDS011;12678;51.336;12.406;2023-02-28T09:18:30;6.68;;;3.10;;
24517;SDS011;12678;51.336;12.406;2023-02-28T09:20:56;7.85;;;3.42;;
24517;SDS011;12678;51.336;12.406;2023-02-28T09:23:22;7.18;;;3.17;;
24517;SDS011;12678;51.336;12.406;2023-02-28T09:25:53;6.35;;;2.58;;
24517;SDS011;12678;51.336;12.406;2023-02-28T09:28:19;5.95;;;2.85;;
24517;SDS011;12678;51.336;12.406;2023-02-28T09:30:48;4.88;;;2.67;;
24517;SDS011;12678;51.336;12.406;2023-02-28T09:33:16;6.35;;;2.88;;
24517;SDS011;12678;51.336;12.406;2023-02-28T09:35:45;5.57;;;2.78;;
24517;SDS011;12678;51.336;12.406;2023-02-28T09:38:11;12.70;;;2.78;;
24517;SDS011;12678;51.336;12.406;2023-02-28T09:40:38;5.10;;;3.25;;
24517;SDS011;12678;51.336;12.406;2023-02-28T09:43:11;7.00;;;2.80;;
24517;SDS011;12678;51.336;12.406;2023-02-28T09:45:40;4.65;;;2.78;;
24517;SDS011;12678;51.336;12.406;2023-02-28T09:48:12;7.30;;;2.78;;
24517;SDS011;12678;51.336;12.406;2023-02-28T09:53:51;4.53;;;2.63;;
24517;SDS011;12678;51.336;12.406;2023-02-28T09:56:20;7.72;;;3.38;;
24517;SDS011;12678;51.336;12.406;2023-02-28T10:01:21;3.58;;;2.50;;
24517;SDS011;12678;51.336;12.406;2023-02-28T10:06:50;10.63;;;3.00;;
24517;SDS011;12678;51.336;12.406;2023-02-28T10:11:56;8.38;;;3.03;;
24517;SDS011;12678;51.336;12.406;2023-02-28T10:14:27;5.97;;;3.13;;
24517;SDS011;12678;51.336;12.406;2023-02-28T10:16:55;12.63;;;3.00;;
24517;SDS011;12678;51.336;12.406;2023-02-28T10:19:30;12.25;;;2.90;;
24517;SDS011;12678;51.336;12.406;2023-02-28T10:22:10;6.63;;;2.80;;
24517;SDS011;12678;51.336;12.406;2023-02-28T10:24:46;3.92;;;2.70;;
24517;SDS011;12678;51.336;12.406;2023-02-28T10:27:23;5.32;;;2.78;;
24517;SDS011;12678;51.336;12.406;2023-02-28T10:29:51;4.90;;;2.72;;
24517;SDS011;12678;51.336;12.406;2023-02-28T10:32:19;10.52;;;3.15;;
24517;SDS011;12678;51.336;12.406;2023-02-28T10:34:53;3.33;;;2.75;;
24517;SDS011;12678;51.336;12.406;2023-02-28T10:37:25;3.60;;;2.40;;
24517;SDS011;12678;51.336;12.406;2023-02-28T10:39:52;4.13;;;2.40;;
24517;SDS011;12678;51.336;12.406;2023-02-28T10:44:55;4.75;;;2.95;;
24517;SDS011;12678;51.336;12.406;2023-02-28T10:47:36;4.20;;;2.38;;
24517;SDS011;12678;51.336;12.406;2023-02-28T10:52:52;5.60;;;2.88;;
24517;SDS011;12678;51.336;12.406;2023-02-28T10:55:22;5.57;;;3.22;;
24517;SDS011;12678;51.336;12.406;2023-02-28T10:57:53;6.32;;;3.03;;
24517;SDS011;12678;51.336;12.406;2023-02-28T11:00:23;7.80;;;3.08;;
24517;SDS011;12678;51.336;12.406;2023-02-28T11:02:52;7.68;;;3.28;;
24517;SDS011;12678;51.336;12.406;2023-02-28T11:07:56;5.43;;;3.25;;
24517;SDS011;12678;51.336;12.406;2023-02-28T11:10:30;4.32;;;2.88;;
24517;SDS011;12678;51.336;12.406;2023-02-28T11:12:59;7.28;;;2.90;;
24517;SDS011;12678;51.336;12.406;2023-02-28T11:15:27;6.03;;;3.13;;
24517;SDS011;12678;51.336;12.406;2023-02-28T11:18:18;12.32;;;3.28;;
24517;SDS011;12678;51.336;12.406;2023-02-28T11:20:52;6.18;;;3.28;;
24517;SDS011;12678;51.336;12.406;2023-02-28T11:23:20;7.88;;;3.78;;
24517;SDS011;12678;51.336;12.406;2023-02-28T11:25:49;4.10;;;2.75;;
24517;SDS011;12678;51.336;12.406;2023-02-28T11:28:34;6.72;;;3.67;;
24517;SDS011;12678;51.336;12.406;2023-02-28T11:38:42;6.28;;;3.42;;
24517;SDS011;12678;51.336;12.406;2023-02-28T11:46:44;4.00;;;2.88;;
24517;SDS011;12678;51.336;12.406;2023-02-28T11:52:35;8.18;;;3.75;;
24517;SDS011;12678;51.336;12.406;2023-02-28T12:00:43;4.05;;;3.33;;
24517;SDS011;12678;51.336;12.406;2023-02-28T12:03:31;6.55;;;3.55;;
24517;SDS011;12678;51.336;12.406;2023-02-28T12:06:21;10.68;;;3.58;;
24517;SDS011;12678;51.336;12.406;2023-02-28T12:09:12;12.30;;;4.40;;
24517;SDS011;12678;51.336;12.406;2023-02-28T12:12:02;9.02;;;3.90;;
24517;SDS011;12678;51.336;12.406;2023-02-28T12:25:44;9.68;;;4.20;;
24517;SDS011;12678;51.336;12.406;2023-02-28T12:28:17;12.82;;;4.00;;
24517;SDS011;12678;51.336;12.406;2023-02-28T12:30:53;8.75;;;4.40;;
24517;SDS011;12678;51.336;12.406;2023-02-28T12:33:26;7.93;;;4.80;;
24517;SDS011;12678;51.336;12.406;2023-02-28T12:35:57;7.22;;;3.88;;
24517;SDS011;12678;51.336;12.406;2023-02-28T12:38:27;6.03;;;3.65;;
24517;SDS011;12678;51.336;12.406;2023-02-28T12:41:05;5.95;;;3.75;;
24517;SDS011;12678;51.336;12.406;2023-02-28T12:43:47;14.40;;;4.63;;
24517;SDS011;12678;51.336;12.406;2023-02-28T12:46:34;8.70;;;4.80;;
24517;SDS011;12678;51.336;12.406;2023-02-28T12:49:11;8.90;;;3.95;;
24517;SDS011;12678;51.336;12.406;2023-02-28T12:51:41;7.22;;;3.83;;
24517;SDS011;12678;51.336;12.406;2023-02-28T12:54:16;8.40;;;4.88;;
24517;SDS011;12678;51.336;12.406;2023-02-28T13:05:10;9.13;;;4.97;;
24517;SDS011;12678;51.336;12.406;2023-02-28T13:10:55;9.90;;;4.65;;
24517;SDS011;12678;51.336;12.406;2023-02-28T13:13:25;9.15;;;4.38;;
24517;SDS011;12678;51.336;12.406;2023-02-28T13:15:58;8.55;;;4.32;;
24517;SDS011;12678;51.336;12.406;2023-02-28T13:20:57;9.15;;;5.20;;
24517;SDS011;12678;51.336;12.406;2023-02-28T13:23:55;9.05;;;4.57;;
24517;SDS011;12678;51.336;12.406;2023-02-28T13:27:10;10.13;;;4.70;;
24517;SDS011;12678;51.336;12.406;2023-02-28T13:34:25;13.25;;;4.75;;
24517;SDS011;12678;51.336;12.406;2023-02-28T13:36:51;8.65;;;4.88;;
24517;SDS011;12678;51.336;12.406;2023-02-28T13:50:31;15.90;;;4.72;;
24517;SDS011;12678;51.336;12.406;2023-02-28T14:11:40;13.60;;;5.13;;
24517;SDS011;12678;51.336;12.406;2023-02-28T14:14:07;12.20;;;5.07;;
24517;SDS011;12678;51.336;12.406;2023-02-28T14:16:36;12.00;;;5.78;;
24517;SDS011;12678;51.336;12.406;2023-02-28T14:19:12;10.30;;;4.75;;
24517;SDS011;12678;51.336;12.406;2023-02-28T14:30:30;8.32;;;4.65;;
24517;SDS011;12678;51.336;12.406;2023-02-28T14:33:14;8.45;;;4.38;;
24517;SDS011;12678;51.336;12.406;2023-02-28T14:36:03;8.65;;;4.72;;
24517;SDS011;12678;51.336;12.406;2023-02-28T14:38:40;6.18;;;4.30;;
24517;SDS011;12678;51.336;12.406;2023-02-28T14:41:20;12.20;;;5.53;;
24517;SDS011;12678;51.336;12.406;2023-02-28T14:43:52;13.35;;;5.63;;
24517;SDS011;12678;51.336;12.406;2023-02-28T14:46:20;16.10;;;5.93;;
24517;SDS011;12678;51.336;12.406;2023-02-28T14:48:48;8.68;;;4.75;;
24517;SDS011;12678;51.336;12.406;2023-02-28T14:51:19;11.25;;;5.20;;
24517;SDS011;12678;51.336;12.406;2023-02-28T14:53:48;10.20;;;5.35;;
24517;SDS011;12678;51.336;12.406;2023-02-28T14:56:19;9.52;;;4.75;;
24517;SDS011;12678;51.336;12.406;2023-02-28T14:58:52;13.57;;;4.60;;
24517;SDS011;12678;51.336;12.406;2023-02-28T15:01:19;16.48;;;5.28;;
24517;SDS011;12678;51.336;12.406;2023-02-28T15:03:47;19.95;;;4.95;;
24517;SDS011;12678;51.336;12.406;2023-02-28T15:06:14;17.27;;;4.95;;
24517;SDS011;12678;51.336;12.406;2023-02-28T15:08:45;14.43;;;5.65;;
24517;SDS011;12678;51.336;12.406;2023-02-28T15:11:17;14.38;;;4.97;;
24517;SDS011;12678;51.336;12.406;2023-02-28T15:13:50;17.77;;;5.03;;
24517;SDS011;12678;51.336;12.406;2023-02-28T15:19:06;9.15;;;5.00;;
24517;SDS011;12678;51.336;12.406;2023-02-28T15:21:42;11.82;;;5.15;;
24517;SDS011;12678;51.336;12.406;2023-02-28T15:24:13;10.32;;;5.13;;
24517;SDS011;12678;51.336;12.406;2023-02-28T15:26:57;7.57;;;4.35;;
24517;SDS011;12678;51.336;12.406;2023-02-28T15:29:25;8.50;;;4.65;;
24517;SDS011;12678;51.336;12.406;2023-02-28T15:32:00;9.55;;;5.18;;
24517;SDS011;12678;51.336;12.406;2023-02-28T15:37:01;9.98;;;5.25;;
24517;SDS011;12678;51.336;12.406;2023-02-28T15:39:31;17.00;;;5.22;;
24517;SDS011;12678;51.336;12.406;2023-02-28T15:42:10;9.32;;;4.60;;
24517;SDS011;12678;51.336;12.406;2023-02-28T15:44:46;7.93;;;5.38;;
24517;SDS011;12678;51.336;12.406;2023-02-28T15:47:23;10.73;;;5.68;;
24517;SDS011;12678;51.336;12.406;2023-02-28T15:49:52;11.00;;;5.88;;
24517;SDS011;12678;51.336;12.406;2023-02-28T15:52:21;14.02;;;5.15;;
24517;SDS011;12678;51.336;12.406;2023-02-28T15:55:16;12.27;;;5.22;;
24517;SDS011;12678;51.336;12.406;2023-02-28T15:57:44;11.57;;;5.38;;
24517;SDS011;12678;51.336;12.406;2023-02-28T16:00:14;10.27;;;4.93;;
24517;SDS011;12678;51.336;12.406;2023-02-28T16:02:41;8.50;;;4.70;;
24517;SDS011;12678;51.336;12.406;2023-02-28T16:07:37;9.93;;;5.40;;
24517;SDS011;12678;51.336;12.406;2023-02-28T16:10:08;13.25;;;6.05;;
24517;SDS011;12678;51.336;12.406;2023-02-28T16:12:36;11.10;;;5.40;;
24517;SDS011;12678;51.336;12.406;2023-02-28T16:15:08;10.88;;;5.78;;
24517;SDS011;12678;51.336;12.406;2023-02-28T16:17:43;10.82;;;4.78;;
24517;SDS011;12678;51.336;12.406;2023-02-28T16:20:13;15.20;;;6.28;;
24517;SDS011;12678;51.336;12.406;2023-02-28T16:22:44;14.10;;;6.00;;
24517;SDS011;12678;51.336;12.406;2023-02-28T16:25:14;11.85;;;5.70;;
24517;SDS011;12678;51.336;12.406;2023-02-28T16:27:42;11.40;;;5.38;;
24517;SDS011;12678;51.336;12.406;2023-02-28T16:30:22;19.65;;;6.57;;
24517;SDS011;12678;51.336;12.406;2023-02-28T16:32:49;11.52;;;5.97;;
24517;SDS011;12678;51.336;12.406;2023-02-28T16:35:21;11.50;;;5.63;;
24517;SDS011;12678;51.336;12.406;2023-02-28T16:37:47;11.95;;;5.80;;
24517;SDS011;12678;51.336;12.406;2023-02-28T16:40:14;9.75;;;5.18;;
24517;SDS011;12678;51.336;12.406;2023-02-28T16:42:41;13.27;;;5.95;;
24517;SDS011;12678;51.336;12.406;2023-02-28T16:45:14;16.73;;;7.05;;
24517;SDS011;12678;51.336;12.406;2023-02-28T16:47:43;18.35;;;6.45;;
24517;SDS011;12678;51.336;12.406;2023-02-28T16:52:41;12.45;;;5.88;;
24517;SDS011;12678;51.336;12.406;2023-02-28T16:55:07;12.95;;;6.05;;
24517;SDS011;12678;51.336;12.406;2023-02-28T16:57:33;12.55;;;6.32;;
24517;SDS011;12678;51.336;12.406;2023-02-28T16:59:59;15.45;;;5.80;;
24517;SDS011;12678;51.336;12.406;2023-02-28T17:02:24;18.67;;;6.32;;
24517;SDS011;12678;51.336;12.406;2023-02-28T17:04:50;15.35;;;6.32;;
24517;SDS011;12678;51.336;12.406;2023-02-28T17:07:16;18.58;;;6.95;;
24517;SDS011;12678;51.336;12.406;2023-02-28T17:09:42;23.23;;;7.72;;
24517;SDS011;12678;51.336;12.406;2023-02-28T17:12:09;13.40;;;7.22;;
24517;SDS011;12678;51.336;12.406;2023-02-28T17:14:36;15.38;;;7.53;;
24517;SDS011;12678;51.336;12.406;2023-02-28T17:17:03;17.92;;;6.60;;
24517;SDS011;12678;51.336;12.406;2023-02-28T17:19:30;14.10;;;6.43;;
24517;SDS011;12678;51.336;12.406;2023-02-28T17:21:55;12.70;;;5.95;;
24517;SDS011;12678;51.336;12.406;2023-02-28T17:24:21;14.32;;;7.35;;
24517;SDS011;12678;51.336;12.406;2023-02-28T17:26:46;21.92;;;7.32;;
24517;SDS011;12678;51.336;12.406;2023-02-28T17:29:16;16.88;;;7.63;;
24517;SDS011;12678;51.336;12.406;2023-02-28T17:31:43;12.07;;;6.90;;
24517;SDS011;12678;51.336;12.406;2023-02-28T17:34:09;13.93;;;7.07;;
24517;SDS011;12678;51.336;12.406;2023-02-28T17:36:35;18.73;;;7.90;;
24517;SDS011;12678;51.336;12.406;2023-02-28T17:39:02;13.63;;;7.05;;
24517;SDS011;12678;51.336;12.406;2023-02-28T17:41:30;13.10;;;6.07;;
24517;SDS011;12678;51.336;12.406;2023-02-28T17:43:56;13.13;;;6.70;;
24517;SDS011;12678;51.336;12.406;2023-02-28T17:46:23;13.43;;;7.10;;